sensor_id;sensor_type;location;lat;lon;timestamp;P1;durP1;ratioP1;P2;durP2;ratioP2
21611;SDS011;47005;52.292;13.452;2023-03-24T00:02:26;3.80;;;1.83;;
21611;SDS011;47005;52.292;13.452;2023-03-24T00:04:52;3.03;;;1.67;;
21611;SDS011;47005;52.292;13.452;2023-03-24T00:07:22;4.60;;;2.50;;
21611;SDS011;47005;52.292;13.452;2023-03-24T00:09:49;5.60;;;2.40;;
21611;SDS011;47005;52.292;13.452;2023-03-24T00:12:14;3.47;;;1.90;;
21611;SDS011;47005;52.292;13.452;2023-03-24T00:14:43;2.53;;;1.77;;
21611;SDS011;47005;52.292;13.452;2023-03-24T00:17:10;3.77;;;1.97;;
21611;SDS011;47005;52.292;13.452;2023-03-24T00:19:38;4.03;;;2.00;;
21611;SDS011;47005;52.292;13.452;2023-03-24T00:22:05;2.57;;;1.73;;
21611;SDS011;47005;52.292;13.452;2023-03-24T00:24:32;2.97;;;1.83;;
21611;SDS011;47005;52.292;13.452;2023-03-24T00:26:58;2.63;;;1.87;;
21611;SDS011;47005;52.292;13.452;2023-03-24T00:29:25;2.83;;;1.77;;
21611;SDS011;47005;52.292;13.452;2023-03-24T00:31:51;4.73;;;1.70;;
21611;SDS011;47005;52.292;13.452;2023-03-24T00:34:18;4.73;;;1.77;;
21611;SDS011;47005;52.292;13.452;2023-03-24T00:36:47;4.00;;;2.10;;
21611;SDS011;47005;52.292;13.452;2023-03-24T00:39:15;3.00;;;1.70;;
21611;SDS011;47005;52.292;13.452;2023-03-24T00:41:41;3.80;;;1.80;;
21611;SDS011;47005;52.292;13.452;2023-03-24T00:44:12;3.40;;;1.90;;
21611;SDS011;47005;52.292;13.452;2023-03-24T00:46:43;2.73;;;1.57;;
21611;SDS011;47005;52.292;13.452;2023-03-24T00:49:10;2.50;;;1.60;;
21611;SDS011;47005;52.292;13.452;2023-03-24T00:51:38;4.70;;;1.73;;
21611;SDS011;47005;52.292;13.452;2023-03-24T00:54:05;4.00;;;1.97;;
21611;SDS011;47005;52.292;13.452;2023-03-24T00:56:34;2.70;;;1.67;;
21611;SDS011;47005;52.292;13.452;2023-03-24T00:59:01;3.23;;;1.80;;
21611;SDS011;47005;52.292;13.452;2023-03-24T01:01:29;2.70;;;1.60;;
21611;SDS011;47005;52.292;13.452;2023-03-24T01:04:00;2.23;;;1.57;;
21611;SDS011;47005;52.292;13.452;2023-03-24T01:06:26;3.07;;;1.30;;
21611;SDS011;47005;52.292;13.452;2023-03-24T01:08:52;2.13;;;1.33;;
21611;SDS011;47005;52.292;13.452;2023-03-24T01:11:19;2.10;;;1.30;;
21611;SDS011;47005;52.292;13.452;2023-03-24T01:13:46;2.80;;;1.60;;
21611;SDS011;47005;52.292;13.452;2023-03-24T01:16:13;4.90;;;1.70;;
21611;SDS011;47005;52.292;13.452;2023-03-24T01:18:39;2.53;;;1.50;;
21611;SDS011;47005;52.292;13.452;2023-03-24T01:21:07;3.33;;;1.70;;
21611;SDS011;47005;52.292;13.452;2023-03-24T01:23:35;2.33;;;1.57;;
21611;SDS011;47005;52.292;13.452;2023-03-24T01:26:04;2.80;;;1.67;;
21611;SDS011;47005;52.292;13.452;2023-03-24T01:28:31;2.90;;;1.90;;
21611;SDS011;47005;52.292;13.452;2023-03-24T01:30:59;3.13;;;2.00;;
21611;SDS011;47005;52.292;13.452;2023-03-24T01:33:25;2.77;;;1.73;;
21611;SDS011;47005;52.292;13.452;2023-03-24T01:35:51;4.20;;;1.80;;
21611;SDS011;47005;52.292;13.452;2023-03-24T01:38:17;4.27;;;2.17;;
21611;SDS011;47005;52.292;13.452;2023-03-24T01:40:44;2.93;;;1.93;;
21611;SDS011;47005;52.292;13.452;2023-03-24T01:43:20;2.17;;;1.30;;
21611;SDS011;47005;52.292;13.452;2023-03-24T01:48:24;6.00;;;1.87;;
21611;SDS011;47005;52.292;13.452;2023-03-24T01:53:46;3.40;;;1.93;;
21611;SDS011;47005;52.292;13.452;2023-03-24T01:56:21;4.67;;;2.20;;
21611;SDS011;47005;52.292;13.452;2023-03-24T01:58:52;2.63;;;1.77;;
21611;SDS011;47005;52.292;13.452;2023-03-24T02:01:22;3.33;;;1.70;;
21611;SDS011;47005;52.292;13.452;2023-03-24T02:03:50;5.60;;;1.97;;
21611;SDS011;47005;52.292;13.452;2023-03-24T02:06:16;4.00;;;1.53;;
21611;SDS011;47005;52.292;13.452;2023-03-24T02:08:57;4.27;;;1.53;;
21611;SDS011;47005;52.292;13.452;2023-03-24T02:11:26;1.97;;;1.30;;
21611;SDS011;47005;52.292;13.452;2023-03-24T02:13:55;3.60;;;1.93;;
21611;SDS011;47005;52.292;13.452;2023-03-24T02:25:33;3.17;;;1.80;;
21611;SDS011;47005;52.292;13.452;2023-03-24T02:28:16;3.27;;;1.50;;
21611;SDS011;47005;52.292;13.452;2023-03-24T02:50:01;2.13;;;1.43;;
21611;SDS011;47005;52.292;13.452;2023-03-24T02:52:39;3.10;;;1.67;;
21611;SDS011;47005;52.292;13.452;2023-03-24T02:55:18;2.70;;;1.50;;
21611;SDS011;47005;52.292;13.452;2023-03-24T02:57:55;3.80;;;2.07;;
21611;SDS011;47005;52.292;13.452;2023-03-24T03:00:45;2.30;;;1.50;;
21611;SDS011;47005;52.292;13.452;2023-03-24T03:03:19;2.30;;;1.60;;
21611;SDS011;47005;52.292;13.452;2023-03-24T03:05:50;2.40;;;1.30;;
21611;SDS011;47005;52.292;13.452;2023-03-24T03:08:17;4.27;;;1.87;;
21611;SDS011;47005;52.292;13.452;2023-03-24T03:10:46;2.83;;;1.90;;
21611;SDS011;47005;52.292;13.452;2023-03-24T03:13:15;2.03;;;1.40;;
21611;SDS011;47005;52.292;13.452;2023-03-24T03:15:50;2.23;;;1.37;;
21611;SDS011;47005;52.292;13.452;2023-03-24T03:18:37;3.43;;;1.83;;
21611;SDS011;47005;52.292;13.452;2023-03-24T03:21:09;3.67;;;1.30;;
21611;SDS011;47005;52.292;13.452;2023-03-24T03:23:46;2.23;;;1.33;;
21611;SDS011;47005;52.292;13.452;2023-03-24T03:26:21;3.33;;;1.60;;
21611;SDS011;47005;52.292;13.452;2023-03-24T03:28:51;3.03;;;1.77;;
21611;SDS011;47005;52.292;13.452;2023-03-24T03:31:34;3.43;;;1.60;;
21611;SDS011;47005;52.292;13.452;2023-03-24T03:34:10;3.47;;;1.77;;
21611;SDS011;47005;52.292;13.452;2023-03-24T03:36:51;3.33;;;1.73;;
21611;SDS011;47005;52.292;13.452;2023-03-24T03:39:28;2.63;;;1.47;;
21611;SDS011;47005;52.292;13.452;2023-03-24T03:41:58;3.60;;;2.17;;
21611;SDS011;47005;52.292;13.452;2023-03-24T03:44:24;3.40;;;2.37;;
21611;SDS011;47005;52.292;13.452;2023-03-24T03:46:50;3.27;;;1.90;;
21611;SDS011;47005;52.292;13.452;2023-03-24T03:49:16;2.87;;;1.87;;
21611;SDS011;47005;52.292;13.452;2023-03-24T03:51:45;2.97;;;2.13;;
21611;SDS011;47005;52.292;13.452;2023-03-24T03:54:11;3.70;;;2.40;;
21611;SDS011;47005;52.292;13.452;2023-03-24T03:56:38;3.57;;;2.20;;
21611;SDS011;47005;52.292;13.452;2023-03-24T03:59:05;3.23;;;2.20;;
21611;SDS011;47005;52.292;13.452;2023-03-24T04:01:32;3.70;;;2.33;;
21611;SDS011;47005;52.292;13.452;2023-03-24T04:12:10;5.97;;;2.50;;
21611;SDS011;47005;52.292;13.452;2023-03-24T04:17:56;3.80;;;2.60;;
21611;SDS011;47005;52.292;13.452;2023-03-24T04:31:43;4.80;;;2.97;;
21611;SDS011;47005;52.292;13.452;2023-03-24T04:34:51;5.73;;;2.87;;
21611;SDS011;47005;52.292;13.452;2023-03-24T04:37:27;4.07;;;2.43;;
21611;SDS011;47005;52.292;13.452;2023-03-24T04:40:03;6.83;;;3.20;;
21611;SDS011;47005;52.292;13.452;2023-03-24T04:42:41;4.43;;;3.10;;
21611;SDS011;47005;52.292;13.452;2023-03-24T04:45:10;5.37;;;3.47;;
21611;SDS011;47005;52.292;13.452;2023-03-24T04:47:47;6.63;;;3.10;;
21611;SDS011;47005;52.292;13.452;2023-03-24T04:53:23;6.20;;;3.47;;
21611;SDS011;47005;52.292;13.452;2023-03-24T04:58:15;4.43;;;2.70;;
21611;SDS011;47005;52.292;13.452;2023-03-24T05:00:42;5.83;;;3.23;;
21611;SDS011;47005;52.292;13.452;2023-03-24T05:03:12;5.27;;;2.90;;
21611;SDS011;47005;52.292;13.452;2023-03-24T05:05:43;3.93;;;2.70;;
21611;SDS011;47005;52.292;13.452;2023-03-24T05:08:09;6.87;;;3.83;;
21611;SDS011;47005;52.292;13.452;2023-03-24T05:10:35;4.60;;;3.17;;
21611;SDS011;47005;52.292;13.452;2023-03-24T05:13:02;3.87;;;2.40;;
21611;SDS011;47005;52.292;13.452;2023-03-24T05:15:29;4.97;;;3.20;;
21611;SDS011;47005;52.292;13.452;2023-03-24T05:17:55;5.97;;;2.87;;
21611;SDS011;47005;52.292;13.452;2023-03-24T05:20:21;4.53;;;2.60;;
21611;SDS011;47005;52.292;13.452;2023-03-24T05:22:47;4.87;;;2.73;;
21611;SDS011;47005;52.292;13.452;2023-03-24T05:25:14;4.13;;;2.70;;
21611;SDS011;47005;52.292;13.452;2023-03-24T05:27:40;3.90;;;2.47;;
21611;SDS011;47005;52.292;13.452;2023-03-24T05:30:06;4.53;;;2.80;;
21611;SDS011;47005;52.292;13.452;2023-03-24T05:32:32;4.83;;;2.30;;
21611;SDS011;47005;52.292;13.452;2023-03-24T05:34:58;5.17;;;3.40;;
21611;SDS011;47005;52.292;13.452;2023-03-24T05:37:24;8.60;;;5.73;;
21611;SDS011;47005;52.292;13.452;2023-03-24T05:39:51;8.00;;;2.93;;
21611;SDS011;47005;52.292;13.452;2023-03-24T05:42:17;5.87;;;2.73;;
21611;SDS011;47005;52.292;13.452;2023-03-24T05:44:43;4.57;;;3.30;;
21611;SDS011;47005;52.292;13.452;2023-03-24T05:47:10;4.80;;;2.40;;
21611;SDS011;47005;52.292;13.452;2023-03-24T05:49:37;3.83;;;2.57;;
21611;SDS011;47005;52.292;13.452;2023-03-24T05:52:03;4.97;;;3.03;;
21611;SDS011;47005;52.292;13.452;2023-03-24T05:54:33;5.87;;;2.90;;
21611;SDS011;47005;52.292;13.452;2023-03-24T05:56:58;7.13;;;2.40;;
21611;SDS011;47005;52.292;13.452;2023-03-24T05:59:24;4.00;;;2.63;;
21611;SDS011;47005;52.292;13.452;2023-03-24T06:01:50;5.13;;;3.20;;
21611;SDS011;47005;52.292;13.452;2023-03-24T06:04:17;4.47;;;3.07;;
21611;SDS011;47005;52.292;13.452;2023-03-24T06:06:44;5.22;;;2.80;;
21611;SDS011;47005;52.292;13.452;2023-03-24T06:09:10;5.00;;;2.65;;
21611;SDS011;47005;52.292;13.452;2023-03-24T06:11:38;4.25;;;2.45;;
21611;SDS011;47005;52.292;13.452;2023-03-24T06:14:04;4.22;;;2.10;;
21611;SDS011;47005;52.292;13.452;2023-03-24T06:16:32;4.57;;;2.47;;
21611;SDS011;47005;52.292;13.452;2023-03-24T06:19:02;4.13;;;2.65;;
21611;SDS011;47005;52.292;13.452;2023-03-24T06:21:30;8.73;;;4.60;;
21611;SDS011;47005;52.292;13.452;2023-03-24T06:23:56;4.97;;;2.85;;
21611;SDS011;47005;52.292;13.452;2023-03-24T06:26:23;8.57;;;3.67;;
21611;SDS011;47005;52.292;13.452;2023-03-24T06:28:48;6.45;;;3.03;;
21611;SDS011;47005;52.292;13.452;2023-03-24T06:31:16;4.80;;;3.00;;
21611;SDS011;47005;52.292;13.452;2023-03-24T06:33:44;4.10;;;2.60;;
21611;SDS011;47005;52.292;13.452;2023-03-24T06:36:11;6.07;;;3.15;;
21611;SDS011;47005;52.292;13.452;2023-03-24T06:38:38;4.25;;;2.65;;
21611;SDS011;47005;52.292;13.452;2023-03-24T06:41:04;5.05;;;2.97;;
21611;SDS011;47005;52.292;13.452;2023-03-24T06:43:30;4.85;;;2.50;;
21611;SDS011;47005;52.292;13.452;2023-03-24T06:45:56;4.35;;;2.60;;
21611;SDS011;47005;52.292;13.452;2023-03-24T06:48:22;6.60;;;3.60;;
21611;SDS011;47005;52.292;13.452;2023-03-24T06:50:50;8.02;;;2.80;;
21611;SDS011;47005;52.292;13.452;2023-03-24T06:53:17;5.10;;;2.78;;
21611;SDS011;47005;52.292;13.452;2023-03-24T06:55:43;4.13;;;2.60;;
21611;SDS011;47005;52.292;13.452;2023-03-24T06:58:09;3.75;;;2.45;;
21611;SDS011;47005;52.292;13.452;2023-03-24T07:00:35;4.40;;;2.60;;
21611;SDS011;47005;52.292;13.452;2023-03-24T07:03:01;6.15;;;2.38;;
21611;SDS011;47005;52.292;13.452;2023-03-24T07:05:27;4.72;;;2.00;;
21611;SDS011;47005;52.292;13.452;2023-03-24T07:07:53;3.65;;;2.30;;
21611;SDS011;47005;52.292;13.452;2023-03-24T07:10:18;4.50;;;2.40;;
21611;SDS011;47005;52.292;13.452;2023-03-24T07:12:45;5.40;;;2.40;;
21611;SDS011;47005;52.292;13.452;2023-03-24T07:15:12;3.53;;;2.20;;
21611;SDS011;47005;52.292;13.452;2023-03-24T07:17:39;3.65;;;2.40;;
21611;SDS011;47005;52.292;13.452;2023-03-24T07:20:06;2.97;;;2.13;;
21611;SDS011;47005;52.292;13.452;2023-03-24T07:22:33;4.03;;;2.53;;
21611;SDS011;47005;52.292;13.452;2023-03-24T07:25:02;4.18;;;2.63;;
21611;SDS011;47005;52.292;13.452;2023-03-24T07:27:29;4.43;;;2.40;;
21611;SDS011;47005;52.292;13.452;2023-03-24T07:29:59;4.45;;;2.45;;
21611;SDS011;47005;52.292;13.452;2023-03-24T07:32:27;3.47;;;2.50;;
21611;SDS011;47005;52.292;13.452;2023-03-24T07:34:54;3.50;;;2.17;;
21611;SDS011;47005;52.292;13.452;2023-03-24T07:37:21;6.90;;;2.83;;
21611;SDS011;47005;52.292;13.452;2023-03-24T07:39:47;2.90;;;1.95;;
21611;SDS011;47005;52.292;13.452;2023-03-24T07:42:13;4.50;;;2.63;;
21611;SDS011;47005;52.292;13.452;2023-03-24T07:44:38;4.65;;;2.50;;
21611;SDS011;47005;52.292;13.452;2023-03-24T07:47:04;4.90;;;2.15;;
21611;SDS011;47005;52.292;13.452;2023-03-24T07:49:30;4.13;;;2.50;;
21611;SDS011;47005;52.292;13.452;2023-03-24T07:51:56;4.22;;;2.58;;
21611;SDS011;47005;52.292;13.452;2023-03-24T07:54:23;5.05;;;2.85;;
21611;SDS011;47005;52.292;13.452;2023-03-24T07:56:49;6.88;;;2.13;;
21611;SDS011;47005;52.292;13.452;2023-03-24T07:59:15;8.63;;;3.08;;
21611;SDS011;47005;52.292;13.452;2023-03-24T08:01:41;3.30;;;2.25;;
21611;SDS011;47005;52.292;13.452;2023-03-24T08:04:09;3.65;;;2.00;;
21611;SDS011;47005;52.292;13.452;2023-03-24T08:06:37;7.43;;;3.20;;
21611;SDS011;47005;52.292;13.452;2023-03-24T08:09:02;6.65;;;2.70;;
21611;SDS011;47005;52.292;13.452;2023-03-24T08:11:28;5.47;;;3.17;;
21611;SDS011;47005;52.292;13.452;2023-03-24T08:13:54;10.00;;;3.38;;
21611;SDS011;47005;52.292;13.452;2023-03-24T08:16:20;4.68;;;2.75;;
21611;SDS011;47005;52.292;13.452;2023-03-24T08:18:46;5.13;;;2.63;;
21611;SDS011;47005;52.292;13.452;2023-03-24T08:21:12;6.05;;;3.03;;
21611;SDS011;47005;52.292;13.452;2023-03-24T08:23:38;5.00;;;3.17;;
21611;SDS011;47005;52.292;13.452;2023-03-24T08:26:04;4.88;;;2.63;;
21611;SDS011;47005;52.292;13.452;2023-03-24T08:28:31;4.80;;;3.33;;
21611;SDS011;47005;52.292;13.452;2023-03-24T08:30:57;6.80;;;2.92;;
21611;SDS011;47005;52.292;13.452;2023-03-24T08:33:22;7.38;;;3.10;;
21611;SDS011;47005;52.292;13.452;2023-03-24T08:35:48;6.20;;;3.97;;
21611;SDS011;47005;52.292;13.452;2023-03-24T08:38:15;5.10;;;3.17;;
21611;SDS011;47005;52.292;13.452;2023-03-24T08:40:41;3.55;;;2.40;;
21611;SDS011;47005;52.292;13.452;2023-03-24T08:43:08;3.90;;;2.88;;
21611;SDS011;47005;52.292;13.452;2023-03-24T08:45:38;4.10;;;2.53;;
21611;SDS011;47005;52.292;13.452;2023-03-24T08:48:04;5.43;;;3.05;;
21611;SDS011;47005;52.292;13.452;2023-03-24T08:50:32;6.50;;;3.25;;
21611;SDS011;47005;52.292;13.452;2023-03-24T08:52:59;8.07;;;2.95;;
21611;SDS011;47005;52.292;13.452;2023-03-24T08:55:25;7.72;;;3.72;;
21611;SDS011;47005;52.292;13.452;2023-03-24T08:57:51;4.75;;;3.03;;
21611;SDS011;47005;52.292;13.452;2023-03-24T09:00:18;6.72;;;3.33;;
21611;SDS011;47005;52.292;13.452;2023-03-24T09:02:45;5.80;;;2.80;;
21611;SDS011;47005;52.292;13.452;2023-03-24T09:05:13;4.47;;;3.05;;
21611;SDS011;47005;52.292;13.452;2023-03-24T09:07:40;5.97;;;3.13;;
21611;SDS011;47005;52.292;13.452;2023-03-24T09:10:06;4.93;;;3.40;;
21611;SDS011;47005;52.292;13.452;2023-03-24T09:12:34;5.28;;;2.90;;
21611;SDS011;47005;52.292;13.452;2023-03-24T09:15:00;5.80;;;3.83;;
21611;SDS011;47005;52.292;13.452;2023-03-24T09:17:27;4.05;;;2.65;;
21611;SDS011;47005;52.292;13.452;2023-03-24T09:19:53;4.80;;;2.58;;
21611;SDS011;47005;52.292;13.452;2023-03-24T09:22:19;4.85;;;3.00;;
21611;SDS011;47005;52.292;13.452;2023-03-24T09:24:45;4.30;;;3.05;;
21611;SDS011;47005;52.292;13.452;2023-03-24T09:27:13;5.25;;;2.92;;
21611;SDS011;47005;52.292;13.452;2023-03-24T09:29:41;4.45;;;3.03;;
21611;SDS011;47005;52.292;13.452;2023-03-24T09:32:08;4.43;;;2.70;;
21611;SDS011;47005;52.292;13.452;2023-03-24T09:34:34;5.45;;;2.60;;
21611;SDS011;47005;52.292;13.452;2023-03-24T09:37:02;4.63;;;2.97;;
21611;SDS011;47005;52.292;13.452;2023-03-24T09:39:28;5.43;;;3.30;;
21611;SDS011;47005;52.292;13.452;2023-03-24T09:41:54;5.90;;;2.60;;
21611;SDS011;47005;52.292;13.452;2023-03-24T09:46:56;6.35;;;3.10;;
21611;SDS011;47005;52.292;13.452;2023-03-24T09:49:28;6.25;;;3.70;;
21611;SDS011;47005;52.292;13.452;2023-03-24T09:52:06;5.03;;;2.80;;
21611;SDS011;47005;52.292;13.452;2023-03-24T09:57:27;11.10;;;3.55;;
21611;SDS011;47005;52.292;13.452;2023-03-24T10:00:02;4.53;;;2.70;;
21611;SDS011;47005;52.292;13.452;2023-03-24T10:02:40;5.20;;;2.80;;
21611;SDS011;47005;52.292;13.452;2023-03-24T10:05:17;5.65;;;3.30;;
21611;SDS011;47005;52.292;13.452;2023-03-24T10:08:45;5.78;;;2.75;;
21611;SDS011;47005;52.292;13.452;2023-03-24T10:16:53;10.20;;;3.40;;
21611;SDS011;47005;52.292;13.452;2023-03-24T10:19:29;5.50;;;2.75;;
21611;SDS011;47005;52.292;13.452;2023-03-24T10:22:29;3.33;;;2.28;;
21611;SDS011;47005;52.292;13.452;2023-03-24T10:28:07;5.07;;;2.70;;
21611;SDS011;47005;52.292;13.452;2023-03-24T10:30:40;5.40;;;2.80;;
21611;SDS011;47005;52.292;13.452;2023-03-24T10:33:10;4.55;;;2.40;;
21611;SDS011;47005;52.292;13.452;2023-03-24T10:35:46;3.50;;;2.10;;
21611;SDS011;47005;52.292;13.452;2023-03-24T10:38:21;3.95;;;2.33;;
21611;SDS011;47005;52.292;13.452;2023-03-24T10:40:47;4.55;;;2.97;;
21611;SDS011;47005;52.292;13.452;2023-03-24T10:43:16;3.42;;;1.98;;
21611;SDS011;47005;52.292;13.452;2023-03-24T10:45:47;3.33;;;2.20;;
21611;SDS011;47005;52.292;13.452;2023-03-24T10:48:32;7.47;;;1.73;;
21611;SDS011;47005;52.292;13.452;2023-03-24T10:51:04;4.57;;;2.25;;
21611;SDS011;47005;52.292;13.452;2023-03-24T10:53:31;3.78;;;2.13;;
21611;SDS011;47005;52.292;13.452;2023-03-24T10:55:59;3.28;;;1.83;;
21611;SDS011;47005;52.292;13.452;2023-03-24T10:58:34;5.68;;;1.77;;
21611;SDS011;47005;52.292;13.452;2023-03-24T11:01:01;4.03;;;1.92;;
21611;SDS011;47005;52.292;13.452;2023-03-24T11:03:33;2.65;;;1.55;;
21611;SDS011;47005;52.292;13.452;2023-03-24T11:06:01;1.83;;;1.30;;
21611;SDS011;47005;52.292;13.452;2023-03-24T11:08:36;3.40;;;1.63;;
21611;SDS011;47005;52.292;13.452;2023-03-24T11:11:12;2.33;;;1.60;;
21611;SDS011;47005;52.292;13.452;2023-03-24T11:13:39;2.90;;;1.50;;
21611;SDS011;47005;52.292;13.452;2023-03-24T11:16:12;1.80;;;1.30;;
21611;SDS011;47005;52.292;13.452;2023-03-24T11:18:59;2.63;;;1.45;;
21611;SDS011;47005;52.292;13.452;2023-03-24T11:21:29;2.13;;;1.60;;
21611;SDS011;47005;52.292;13.452;2023-03-24T11:24:10;2.03;;;1.17;;
21611;SDS011;47005;52.292;13.452;2023-03-24T11:26:39;2.75;;;1.45;;
21611;SDS011;47005;52.292;13.452;2023-03-24T11:29:13;4.97;;;1.60;;
21611;SDS011;47005;52.292;13.452;2023-03-24T11:31:41;2.90;;;1.58;;
21611;SDS011;47005;52.292;13.452;2023-03-24T11:34:23;2.95;;;1.60;;
21611;SDS011;47005;52.292;13.452;2023-03-24T11:37:01;2.20;;;1.35;;
21611;SDS011;47005;52.292;13.452;2023-03-24T11:39:32;2.35;;;1.45;;
21611;SDS011;47005;52.292;13.452;2023-03-24T11:42:03;3.25;;;1.48;;
21611;SDS011;47005;52.292;13.452;2023-03-24T11:44:30;4.05;;;2.00;;
21611;SDS011;47005;52.292;13.452;2023-03-24T11:49:44;2.47;;;1.58;;
21611;SDS011;47005;52.292;13.452;2023-03-24T11:52:26;2.13;;;1.50;;
21611;SDS011;47005;52.292;13.452;2023-03-24T11:54:57;2.33;;;1.40;;
21611;SDS011;47005;52.292;13.452;2023-03-24T11:58:07;3.03;;;1.33;;
21611;SDS011;47005;52.292;13.452;2023-03-24T12:03:09;3.17;;;1.70;;
21611;SDS011;47005;52.292;13.452;2023-03-24T12:05:40;3.63;;;1.38;;
21611;SDS011;47005;52.292;13.452;2023-03-24T12:10:46;5.10;;;1.52;;
21611;SDS011;47005;52.292;13.452;2023-03-24T12:16:05;4.53;;;1.63;;
21611;SDS011;47005;52.292;13.452;2023-03-24T12:26:41;1.92;;;1.42;;
21611;SDS011;47005;52.292;13.452;2023-03-24T12:34:35;3.20;;;1.42;;
21611;SDS011;47005;52.292;13.452;2023-03-24T12:42:38;2.25;;;1.40;;
21611;SDS011;47005;52.292;13.452;2023-03-24T12:47:57;2.03;;;1.20;;
21611;SDS011;47005;52.292;13.452;2023-03-24T12:56:12;1.98;;;1.27;;
21611;SDS011;47005;52.292;13.452;2023-03-24T13:09:16;2.67;;;1.10;;
21611;SDS011;47005;52.292;13.452;2023-03-24T13:17:35;2.78;;;1.45;;
21611;SDS011;47005;52.292;13.452;2023-03-24T13:20:20;3.72;;;1.50;;
21611;SDS011;47005;52.292;13.452;2023-03-24T13:23:14;2.97;;;1.50;;
21611;SDS011;47005;52.292;13.452;2023-03-24T13:28:31;2.25;;;1.27;;
21611;SDS011;47005;52.292;13.452;2023-03-24T13:31:04;2.85;;;1.48;;
21611;SDS011;47005;52.292;13.452;2023-03-24T13:33:32;2.15;;;1.33;;
21611;SDS011;47005;52.292;13.452;2023-03-24T13:38:45;2.30;;;1.45;;
21611;SDS011;47005;52.292;13.452;2023-03-24T13:41:17;2.40;;;1.33;;
21611;SDS011;47005;52.292;13.452;2023-03-24T13:43:48;2.17;;;1.23;;
21611;SDS011;47005;52.292;13.452;2023-03-24T13:46:21;4.97;;;1.40;;
21611;SDS011;47005;52.292;13.452;2023-03-24T13:48:55;2.17;;;1.10;;
21611;SDS011;47005;52.292;13.452;2023-03-24T13:51:33;4.97;;;1.30;;
21611;SDS011;47005;52.292;13.452;2023-03-24T13:54:11;4.10;;;1.48;;
21611;SDS011;47005;52.292;13.452;2023-03-24T13:56:46;3.05;;;1.75;;
21611;SDS011;47005;52.292;13.452;2023-03-24T14:02:10;3.30;;;1.27;;
21611;SDS011;47005;52.292;13.452;2023-03-24T14:25:57;3.13;;;1.67;;
21611;SDS011;47005;52.292;13.452;2023-03-24T14:33:33;3.33;;;1.33;;
21611;SDS011;47005;52.292;13.452;2023-03-24T14:36:03;1.92;;;1.30;;
21611;SDS011;47005;52.292;13.452;2023-03-24T14:38:34;2.80;;;1.40;;
21611;SDS011;47005;52.292;13.452;2023-03-24T14:41:11;2.28;;;1.35;;
21611;SDS011;47005;52.292;13.452;2023-03-24T14:48:51;4.47;;;1.42;;
21611;SDS011;47005;52.292;13.452;2023-03-24T14:51:37;2.67;;;1.35;;
21611;SDS011;47005;52.292;13.452;2023-03-24T14:56:58;3.35;;;1.52;;
21611;SDS011;47005;52.292;13.452;2023-03-24T14:59:36;4.15;;;1.35;;
21611;SDS011;47005;52.292;13.452;2023-03-24T15:02:15;2.83;;;1.17;;
21611;SDS011;47005;52.292;13.452;2023-03-24T15:08:00;3.20;;;1.30;;
21611;SDS011;47005;52.292;13.452;2023-03-24T15:15:56;2.15;;;1.30;;
21611;SDS011;47005;52.292;13.452;2023-03-24T15:18:22;2.90;;;1.50;;
21611;SDS011;47005;52.292;13.452;2023-03-24T15:20:48;4.30;;;1.20;;
21611;SDS011;47005;52.292;13.452;2023-03-24T15:23:21;2.47;;;1.30;;
21611;SDS011;47005;52.292;13.452;2023-03-24T15:25:52;1.95;;;1.40;;
21611;SDS011;47005;52.292;13.452;2023-03-24T15:28:20;2.72;;;1.38;;
21611;SDS011;47005;52.292;13.452;2023-03-24T15:30:50;3.10;;;1.90;;
21611;SDS011;47005;52.292;13.452;2023-03-24T15:33:17;2.95;;;1.40;;
21611;SDS011;47005;52.292;13.452;2023-03-24T15:35:45;5.07;;;1.45;;
21611;SDS011;47005;52.292;13.452;2023-03-24T15:38:19;2.28;;;1.45;;
21611;SDS011;47005;52.292;13.452;2023-03-24T15:40:52;2.72;;;1.40;;
21611;SDS011;47005;52.292;13.452;2023-03-24T15:43:20;3.20;;;1.55;;
21611;SDS011;47005;52.292;13.452;2023-03-24T15:45:49;2.00;;;1.40;;
21611;SDS011;47005;52.292;13.452;2023-03-24T15:48:29;3.88;;;1.38;;
21611;SDS011;47005;52.292;13.452;2023-03-24T15:51:05;1.88;;;1.10;;
21611;SDS011;47005;52.292;13.452;2023-03-24T15:53:37;2.42;;;1.48;;
21611;SDS011;47005;52.292;13.452;2023-03-24T15:56:12;1.70;;;1.35;;
21611;SDS011;47005;52.292;13.452;2023-03-24T15:58:49;1.92;;;1.40;;
21611;SDS011;47005;52.292;13.452;2023-03-24T16:01:16;2.20;;;1.33;;
21611;SDS011;47005;52.292;13.452;2023-03-24T16:03:44;2.42;;;1.20;;
21611;SDS011;47005;52.292;13.452;2023-03-24T16:06:20;2.38;;;1.48;;
21611;SDS011;47005;52.292;13.452;2023-03-24T16:08:57;2.40;;;1.48;;
21611;SDS011;47005;52.292;13.452;2023-03-24T16:11:29;5.10;;;1.27;;
21611;SDS011;47005;52.292;13.452;2023-03-24T16:13:55;1.92;;;1.10;;
21611;SDS011;47005;52.292;13.452;2023-03-24T16:16:34;1.58;;;0.93;;
21611;SDS011;47005;52.292;13.452;2023-03-24T16:19:01;3.28;;;1.42;;
21611;SDS011;47005;52.292;13.452;2023-03-24T16:21:28;3.65;;;1.38;;
21611;SDS011;47005;52.292;13.452;2023-03-24T16:23:56;4.30;;;1.50;;
21611;SDS011;47005;52.292;13.452;2023-03-24T16:28:49;2.20;;;1.38;;
21611;SDS011;47005;52.292;13.452;2023-03-24T16:31:25;2.80;;;1.38;;
21611;SDS011;47005;52.292;13.452;2023-03-24T16:33:57;2.97;;;1.67;;
21611;SDS011;47005;52.292;13.452;2023-03-24T16:36:23;4.07;;;1.50;;
21611;SDS011;47005;52.292;13.452;2023-03-24T16:38:56;1.33;;;1.00;;
21611;SDS011;47005;52.292;13.452;2023-03-24T16:41:23;6.97;;;1.85;;
21611;SDS011;47005;52.292;13.452;2023-03-24T16:43:49;3.45;;;1.60;;
21611;SDS011;47005;52.292;13.452;2023-03-24T16:46:21;5.63;;;1.60;;
21611;SDS011;47005;52.292;13.452;2023-03-24T16:48:50;1.85;;;1.25;;
21611;SDS011;47005;52.292;13.452;2023-03-24T16:51:17;1.63;;;1.10;;
21611;SDS011;47005;52.292;13.452;2023-03-24T16:53:43;1.85;;;1.13;;
21611;SDS011;47005;52.292;13.452;2023-03-24T16:56:17;3.97;;;1.60;;
21611;SDS011;47005;52.292;13.452;2023-03-24T16:58:45;2.42;;;1.48;;
21611;SDS011;47005;52.292;13.452;2023-03-24T17:01:16;3.60;;;1.38;;
21611;SDS011;47005;52.292;13.452;2023-03-24T17:03:57;3.67;;;1.70;;
21611;SDS011;47005;52.292;13.452;2023-03-24T17:06:28;6.95;;;1.73;;
21611;SDS011;47005;52.292;13.452;2023-03-24T17:08:58;5.65;;;2.00;;
21611;SDS011;47005;52.292;13.452;2023-03-24T17:11:27;2.67;;;1.65;;
21611;SDS011;47005;52.292;13.452;2023-03-24T17:13:55;6.60;;;2.20;;
21611;SDS011;47005;52.292;13.452;2023-03-24T17:16:34;6.35;;;1.88;;
21611;SDS011;47005;52.292;13.452;2023-03-24T17:19:05;5.95;;;2.30;;
21611;SDS011;47005;52.292;13.452;2023-03-24T17:21:31;4.38;;;2.10;;
21611;SDS011;47005;52.292;13.452;2023-03-24T17:24:01;4.35;;;2.13;;
21611;SDS011;47005;52.292;13.452;2023-03-24T17:26:27;4.80;;;1.95;;
21611;SDS011;47005;52.292;13.452;2023-03-24T17:28:53;3.80;;;2.20;;
21611;SDS011;47005;52.292;13.452;2023-03-24T17:31:18;3.53;;;1.80;;
21611;SDS011;47005;52.292;13.452;2023-03-24T17:33:44;4.32;;;2.10;;
21611;SDS011;47005;52.292;13.452;2023-03-24T17:36:14;7.50;;;2.78;;
21611;SDS011;47005;52.292;13.452;2023-03-24T17:38:40;4.25;;;2.08;;
21611;SDS011;47005;52.292;13.452;2023-03-24T17:41:07;4.40;;;2.88;;
21611;SDS011;47005;52.292;13.452;2023-03-24T17:43:33;5.43;;;2.85;;
21611;SDS011;47005;52.292;13.452;2023-03-24T17:45:59;5.22;;;2.92;;
21611;SDS011;47005;52.292;13.452;2023-03-24T17:48:26;4.85;;;3.03;;
21611;SDS011;47005;52.292;13.452;2023-03-24T17:50:52;5.70;;;2.92;;
21611;SDS011;47005;52.292;13.452;2023-03-24T17:53:18;7.15;;;3.88;;
21611;SDS011;47005;52.292;13.452;2023-03-24T17:55:51;7.68;;;3.45;;